Time;durP1;ratioP1;P1;durP2;ratioP2;P2;SDS_P1;SDS_P2;PMS_P1;PMS_P2;Temp;Humidity;BMP_temperature;BMP_pressure;BME280_temperature;BME280_humidity;BME280_pressure;Samples;Min_cycle;Max_cycle;Signal;HPM_P1;HPM_P2
2021/08/30 00:00:15;;;;;;;5.13;3.30;;;;;;;11.82;100.00;95044.66;5013269;28;20397;-52
2021/08/30 00:02:46;;;;;;;4.03;2.97;;;;;;;11.80;100.00;95046.03;5013653;28;20025;-54
2021/08/30 00:05:12;;;;;;;6.30;3.00;;;;;;;11.78;100.00;95043.59;5013395;28;20037;-53
2021/08/30 00:07:37;;;;;;;4.88;3.63;;;;;;;11.77;100.00;95046.53;5013374;28;20400;-54
2021/08/30 00:10:06;;;;;;;4.55;3.30;;;;;;;11.75;100.00;95044.13;5011794;28;20040;-53
2021/08/30 00:12:40;;;;;;;5.97;3.88;;;;;;;11.74;100.00;95047.91;5011891;28;20037;-55
2021/08/30 00:15:07;;;;;;;4.28;3.05;;;;;;;11.74;100.00;95039.84;5013378;28;20066;-52
2021/08/30 00:17:35;;;;;;;4.28;3.38;;;;;;;11.72;100.00;95033.13;5013207;28;20022;-52
2021/08/30 00:20:03;;;;;;;4.18;3.60;;;;;;;11.73;100.00;95037.44;5012941;28;20021;-55
2021/08/30 00:22:29;;;;;;;5.05;3.13;;;;;;;11.71;100.00;95026.97;5013333;28;20416;-52
2021/08/30 00:24:54;;;;;;;3.67;3.28;;;;;;;11.73;100.00;95024.03;5013210;28;20022;-56
2021/08/30 00:27:22;;;;;;;3.97;3.50;;;;;;;11.71;100.00;95023.47;5013079;28;20026;-49
2021/08/30 00:29:48;;;;;;;4.80;3.50;;;;;;;11.71;100.00;95026.16;5012479;28;20362;-51
2021/08/30 00:32:16;;;;;;;6.45;3.85;;;;;;;11.71;100.00;95024.28;5012736;28;20032;-54
2021/08/30 00:34:41;;;;;;;5.20;3.67;;;;;;;11.69;100.00;95029.13;5012665;28;20401;-51
2021/08/30 00:37:06;;;;;;;4.40;3.55;;;;;;;11.68;100.00;95027.50;5011654;28;20034;-52
2021/08/30 00:39:32;;;;;;;3.20;2.85;;;;;;;11.68;100.00;95018.66;5011575;28;20034;-50
2021/08/30 00:41:58;;;;;;;4.40;3.45;;;;;;;11.67;100.00;95025.09;5012856;28;20030;-53
2021/08/30 00:44:24;;;;;;;3.63;3.17;;;;;;;11.65;100.00;95016.53;5012572;28;20021;-52
2021/08/30 00:46:51;;;;;;;5.32;3.58;;;;;;;11.63;100.00;95024.84;5012580;28;20073;-51
2021/08/30 00:49:16;;;;;;;5.50;3.30;;;;;;;11.61;100.00;95018.94;5012380;28;20104;-53
2021/08/30 00:51:45;;;;;;;4.70;3.50;;;;;;;11.58;100.00;95020.28;5012702;28;20038;-52
2021/08/30 00:54:10;;;;;;;3.55;2.90;;;;;;;11.55;100.00;95022.72;5011086;28;20021;-55
2021/08/30 00:56:37;;;;;;;5.30;3.33;;;;;;;11.54;100.00;95032.66;5012382;28;20503;-52
2021/08/30 00:59:02;;;;;;;4.53;3.15;;;;;;;11.53;100.00;95027.56;5012437;28;20488;-53
2021/08/30 01:01:28;;;;;;;4.75;3.47;;;;;;;11.50;100.00;95020.84;5010972;28;20089;-52
2021/08/30 01:03:53;;;;;;;4.93;3.90;;;;;;;11.49;100.00;95021.91;5012094;28;20060;-53
2021/08/30 01:06:40;;;;;;;4.30;2.92;;;;;;;11.52;100.00;95018.72;5012549;28;20025;-57
2021/08/30 01:09:31;;;;;;;6.43;3.90;;;;;;;11.54;100.00;95023.81;5011176;28;20025;-54
2021/08/30 01:12:24;;;;;;;4.22;3.75;;;;;;;11.52;100.00;95016.03;5012158;28;20046;-56
2021/08/30 01:14:57;;;;;;;4.82;3.60;;;;;;;11.53;100.00;95019.50;5010562;28;20501;-55
2021/08/30 01:17:24;;;;;;;4.03;3.28;;;;;;;11.51;100.00;95022.47;5007787;28;20034;-50
2021/08/30 01:20:08;;;;;;;4.47;2.97;;;;;;;11.49;100.00;95013.06;5009665;28;20284;-52
2021/08/30 01:22:36;;;;;;;6.43;3.65;;;;;;;11.48;100.00;95009.59;5012085;28;20038;-52
2021/08/30 01:25:03;;;;;;;5.07;3.40;;;;;;;11.47;100.00;95010.66;5012067;28;20033;-52
2021/08/30 01:27:31;;;;;;;3.83;3.03;;;;;;;11.47;100.00;95018.72;5011686;28;20026;-52
2021/08/30 01:30:02;;;;;;;6.32;2.90;;;;;;;11.47;100.00;95012.53;5010551;28;20029;-53
2021/08/30 01:32:41;;;;;;;5.63;3.22;;;;;;;11.46;100.00;95013.63;5012005;28;20022;-51
2021/08/30 01:35:16;;;;;;;4.95;3.28;;;;;;;11.43;100.00;95011.50;5012285;28;20022;-51
2021/08/30 01:37:47;;;;;;;5.03;3.53;;;;;;;11.41;100.00;95003.72;5012980;28;20211;-55
2021/08/30 01:40:14;;;;;;;5.18;3.38;;;;;;;11.39;100.00;95000.47;5011970;28;20492;-53
2021/08/30 01:42:52;;;;;;;4.13;3.20;;;;;;;11.40;100.00;95004.78;5013219;28;20057;-53
2021/08/30 01:45:23;;;;;;;5.32;3.70;;;;;;;11.41;100.00;95003.72;5012108;28;20026;-50
2021/08/30 01:47:52;;;;;;;4.70;3.47;;;;;;;11.44;100.00;94997.00;5010321;28;20040;-49
2021/08/30 01:50:21;;;;;;;5.68;3.85;;;;;;;11.45;100.00;94998.59;5010161;28;20438;-53
2021/08/30 01:52:49;;;;;;;4.65;3.42;;;;;;;11.47;100.00;94996.44;5011344;28;20465;-51
2021/08/30 01:55:36;;;;;;;4.90;3.53;;;;;;;11.48;100.00;94998.06;5011616;28;20030;-49
2021/08/30 02:03:15;;;;;;;5.60;4.45;;;;;;;11.52;100.00;94988.41;5010655;28;20030;-59
2021/08/30 02:05:45;;;;;;;6.03;4.10;;;;;;;11.50;100.00;94977.91;5010265;28;20449;-52
2021/08/30 02:08:15;;;;;;;5.70;4.45;;;;;;;11.50;100.00;94985.16;5010207;28;20025;-50
2021/08/30 02:10:43;;;;;;;4.93;4.15;;;;;;;11.50;100.00;94979.81;5011116;28;20076;-48
2021/08/30 02:13:14;;;;;;;4.30;3.50;;;;;;;11.48;100.00;94977.41;5011369;28;20030;-50
2021/08/30 02:15:43;;;;;;;4.15;3.50;;;;;;;11.48;100.00;94977.41;5009918;28;20052;-53
2021/08/30 02:18:27;;;;;;;5.13;3.40;;;;;;;11.48;100.00;94974.72;5011440;28;20030;-49
2021/08/30 02:21:04;;;;;;;4.03;3.50;;;;;;;11.46;100.00;94963.47;5011366;28;20060;-48
2021/08/30 02:23:33;;;;;;;6.63;4.13;;;;;;;11.43;100.00;94966.69;5011299;28;20428;-51
2021/08/30 02:26:05;;;;;;;4.90;3.67;;;;;;;11.38;100.00;94965.91;5009986;28;20028;-54
2021/08/30 02:28:42;;;;;;;4.50;3.60;;;;;;;11.32;100.00;94965.13;5011039;28;20030;-51
2021/08/30 02:31:09;;;;;;;4.60;3.53;;;;;;;11.27;100.00;94965.13;5011059;28;20033;-54
2021/08/30 02:33:37;;;;;;;9.05;4.30;;;;;;;11.19;100.00;94969.19;5011231;28;20477;-50
2021/08/30 02:36:06;;;;;;;4.88;4.05;;;;;;;11.13;100.00;94961.41;5011251;28;20029;-55
2021/08/30 02:38:34;;;;;;;8.48;4.13;;;;;;;11.03;100.00;94959.53;5011080;28;20034;-55
2021/08/30 02:41:02;;;;;;;5.38;3.95;;;;;;;10.99;100.00;94958.47;5011109;28;20392;-52
2021/08/30 02:43:31;;;;;;;6.50;4.07;;;;;;;10.96;100.00;94962.50;5009639;28;20059;-53
2021/08/30 02:45:58;;;;;;;5.10;3.75;;;;;;;10.95;100.00;94954.72;5011077;28;20341;-52
2021/08/30 02:48:28;;;;;;;5.90;3.90;;;;;;;10.93;100.00;94949.63;5011067;28;20476;-54
2021/08/30 02:50:55;;;;;;;5.07;4.05;;;;;;;10.92;100.00;94949.91;5011021;28;20121;-52
2021/08/30 02:53:25;;;;;;;4.78;3.83;;;;;;;10.94;100.00;94945.06;5013359;28;20026;-52
2021/08/30 02:55:54;;;;;;;7.50;4.32;;;;;;;10.94;100.00;94947.75;5014789;28;20113;-55
2021/08/30 02:58:23;;;;;;;5.93;4.00;;;;;;;10.98;100.00;94944.28;5014680;28;20041;-51
2021/08/30 03:00:49;;;;;;;6.28;4.38;;;;;;;11.03;100.00;94933.53;5013095;28;20305;-49
2021/08/30 03:03:15;;;;;;;6.13;4.25;;;;;;;11.03;100.00;94930.84;5013284;28;20558;-53
2021/08/30 03:05:49;;;;;;;5.38;4.00;;;;;;;11.01;100.00;94922.28;5013295;28;20068;-48
2021/08/30 03:08:15;;;;;;;6.47;4.38;;;;;;;11.01;100.00;94918.81;5013378;28;20026;-52
2021/08/30 03:10:43;;;;;;;5.30;4.03;;;;;;;10.99;100.00;94921.75;5013099;28;20022;-51
2021/08/30 03:13:12;;;;;;;8.63;4.70;;;;;;;10.96;100.00;94913.44;5013025;28;20030;-53
2021/08/30 03:15:45;;;;;;;5.88;4.57;;;;;;;10.93;100.00;94908.63;5014200;28;20026;-52
2021/08/30 03:18:12;;;;;;;5.75;4.22;;;;;;;10.89;100.00;94903.03;5012895;28;20021;-50
2021/08/30 03:20:42;;;;;;;5.88;4.50;;;;;;;10.87;100.00;94902.50;5014183;28;20381;-53
2021/08/30 03:23:19;;;;;;;6.60;4.90;;;;;;;10.88;100.00;94904.09;5014214;28;20033;-54
2021/08/30 03:25:47;;;;;;;6.45;3.95;;;;;;;10.90;100.00;94901.16;5012932;28;20041;-51
2021/08/30 03:28:13;;;;;;;5.25;4.07;;;;;;;10.91;100.00;94898.19;5029213;28;20441;-51
2021/08/30 03:30:39;;;;;;;5.60;4.53;;;;;;;10.92;100.00;94896.31;5012861;28;20101;-53
2021/08/30 03:33:11;;;;;;;6.43;4.70;;;;;;;10.94;100.00;94897.63;5013987;28;20030;-53
2021/08/30 03:35:37;;;;;;;5.93;4.28;;;;;;;10.97;100.00;94897.13;5013871;28;20029;-55
2021/08/30 03:38:03;;;;;;;6.30;4.72;;;;;;;10.98;100.00;94895.25;5013620;28;20038;-52
2021/08/30 03:40:30;;;;;;;7.72;4.55;;;;;;;11.00;100.00;94890.41;5012276;28;20527;-52
2021/08/30 03:42:58;;;;;;;8.50;4.75;;;;;;;11.00;100.00;94882.38;5012958;28;20041;-51
2021/08/30 03:45:28;;;;;;;6.32;4.30;;;;;;;11.02;100.00;94886.38;5014033;28;20018;-53
2021/08/30 03:47:55;;;;;;;7.10;4.65;;;;;;;11.03;100.00;94871.91;5013702;28;20048;-53
2021/08/30 03:50:21;;;;;;;7.72;4.38;;;;;;;11.04;100.00;94870.00;5013584;28;20030;-54
2021/08/30 03:52:47;;;;;;;6.97;4.78;;;;;;;11.03;100.00;94876.44;5013470;28;20034;-57
2021/08/30 03:55:16;;;;;;;7.00;5.18;;;;;;;11.03;100.00;94871.09;5013233;28;20030;-50
2021/08/30 03:57:47;;;;;;;5.70;4.70;;;;;;;11.02;100.00;94867.59;5013775;28;20092;-51
2021/08/30 04:00:16;;;;;;;6.32;5.07;;;;;;;11.01;100.00;94860.66;5013563;28;20100;-53
2021/08/30 04:02:42;;;;;;;5.70;4.38;;;;;;;11.00;100.00;94856.38;5012931;28;20036;-54
2021/08/30 04:05:09;;;;;;;5.80;4.43;;;;;;;10.98;100.00;94853.16;4995434;28;20021;-52
2021/08/30 04:07:35;;;;;;;8.70;4.75;;;;;;;10.96;100.00;94849.97;5013649;28;20500;-52
2021/08/30 04:10:01;;;;;;;7.22;4.72;;;;;;;10.94;100.00;94853.97;5013514;28;20033;-57
2021/08/30 04:12:27;;;;;;;5.78;4.50;;;;;;;10.93;100.00;94852.34;5012296;28;20029;-55
2021/08/30 04:14:55;;;;;;;6.13;4.68;;;;;;;10.89;100.00;94857.47;5012954;28;20034;-59
2021/08/30 04:17:24;;;;;;;5.68;4.97;;;;;;;10.87;100.00;94858.81;5012053;28;20057;-54
2021/08/30 04:19:56;;;;;;;5.32;4.20;;;;;;;10.87;100.00;94856.16;5013544;28;20021;-53
2021/08/30 04:22:21;;;;;;;7.55;4.65;;;;;;;10.88;100.00;94858.53;5012880;28;20041;-54
2021/08/30 04:24:54;;;;;;;6.15;5.15;;;;;;;10.89;100.00;94852.13;5013439;28;20469;-56
2021/08/30 04:27:20;;;;;;;7.03;5.20;;;;;;;10.90;100.00;94856.41;5013356;28;20373;-56
2021/08/30 04:29:45;;;;;;;6.00;4.80;;;;;;;10.91;100.00;94852.63;5011839;28;20036;-51
2021/08/30 04:32:13;;;;;;;6.93;4.85;;;;;;;10.91;100.00;94855.31;5011646;28;20409;-53
2021/08/30 04:34:42;;;;;;;5.65;4.78;;;;;;;10.94;100.00;94857.44;5011612;28;20037;-53
2021/08/30 04:37:10;;;;;;;6.55;5.10;;;;;;;10.98;100.00;94849.69;5011622;28;20042;-54
2021/08/30 04:39:36;;;;;;;7.18;4.60;;;;;;;11.00;100.00;94855.56;5011488;28;20025;-56
2021/08/30 04:42:09;;;;;;;5.82;4.63;;;;;;;11.02;100.00;94856.88;5012904;28;20034;-55
2021/08/30 04:44:38;;;;;;;7.55;4.75;;;;;;;11.06;100.00;94848.28;5013014;28;20514;-55
2021/08/30 04:47:05;;;;;;;6.45;4.40;;;;;;;11.08;100.00;94848.84;5012733;28;20119;-54
2021/08/30 04:49:34;;;;;;;5.95;4.40;;;;;;;11.08;100.00;94849.66;5012599;28;20030;-53
2021/08/30 04:52:00;;;;;;;6.30;5.30;;;;;;;11.09;100.00;94853.94;5012741;28;20060;-54
2021/08/30 04:54:25;;;;;;;6.72;4.93;;;;;;;11.09;100.00;94848.56;5011409;28;20117;-51
2021/08/30 04:56:51;;;;;;;7.53;5.32;;;;;;;11.08;100.00;94852.34;5012055;28;20030;-54
2021/08/30 04:59:21;;;;;;;6.70;5.20;;;;;;;11.10;100.00;94857.41;5012439;28;20022;-53
2021/08/30 05:01:46;;;;;;;7.93;4.88;;;;;;;11.12;100.00;94856.06;5011708;28;20149;-61
2021/08/30 05:04:12;;;;;;;5.70;4.75;;;;;;;11.14;100.00;94861.16;5012505;28;20037;-61
2021/08/30 05:06:37;;;;;;;6.78;4.63;;;;;;;11.16;100.00;94856.31;5012422;28;20026;-61
2021/08/30 05:09:06;;;;;;;7.78;5.57;;;;;;;11.20;100.00;94860.06;5010867;28;20076;-61
2021/08/30 05:11:40;;;;;;;6.53;4.70;;;;;;;11.22;100.00;94856.03;5012503;28;20400;-61
2021/08/30 05:14:06;;;;;;;6.93;5.13;;;;;;;11.31;100.00;94851.69;5011702;28;20030;-59
2021/08/30 05:16:31;;;;;;;6.28;4.45;;;;;;;11.37;100.00;94847.09;5011005;28;20041;-61
2021/08/30 05:18:56;;;;;;;5.53;4.90;;;;;;;11.40;100.00;94835.84;5010869;28;20021;-61
2021/08/30 05:21:24;;;;;;;8.07;5.07;;;;;;;11.40;100.00;94833.16;5012525;28;20036;-61
2021/08/30 05:23:52;;;;;;;7.28;5.38;;;;;;;11.41;100.00;94818.69;5012079;28;20032;-60
2021/08/30 05:26:17;;;;;;;8.48;5.10;;;;;;;11.43;100.00;94827.25;5010755;28;20079;-60
2021/08/30 05:28:49;;;;;;;9.25;5.20;;;;;;;11.43;100.00;94816.50;5012117;28;20046;-60
2021/08/30 05:31:14;;;;;;;7.90;5.10;;;;;;;11.44;100.00;94818.13;5011986;28;20113;-60
2021/08/30 05:33:42;;;;;;;7.60;4.90;;;;;;;11.45;100.00;94808.19;5012013;28;20101;-60
2021/08/30 05:36:08;;;;;;;8.35;5.05;;;;;;;11.46;100.00;94799.06;5011719;28;20026;-60
2021/08/30 05:38:35;;;;;;;7.30;4.95;;;;;;;11.48;100.00;94808.44;5011753;28;20033;-61
2021/08/30 05:41:01;;;;;;;7.13;5.10;;;;;;;11.52;100.00;94809.50;5011442;28;20048;-60
2021/08/30 05:43:26;;;;;;;6.30;5.18;;;;;;;11.57;100.00;94814.81;5011681;28;20021;-61
2021/08/30 05:45:55;;;;;;;6.07;4.78;;;;;;;11.64;100.00;94817.22;5012026;28;20022;-61
2021/08/30 05:48:23;;;;;;;8.10;5.07;;;;;;;11.67;100.00;94805.13;5010426;28;20030;-60
2021/08/30 05:50:51;;;;;;;7.32;5.70;;;;;;;11.71;100.00;94812.31;5011452;28;20392;-61
2021/08/30 05:53:19;;;;;;;8.52;5.47;;;;;;;11.75;100.00;94817.94;5011693;28;20030;-61
2021/08/30 05:55:45;;;;;;;10.45;6.03;;;;;;;11.77;100.00;94811.22;5011156;28;20408;-63
2021/08/30 05:58:13;;;;;;;7.97;5.35;;;;;;;11.79;100.00;94816.28;5011447;28;20022;-61
2021/08/30 06:00:41;;;;;;;8.70;6.13;;;;;;;11.81;100.00;94817.66;5009792;28;20064;-61
2021/08/30 06:03:09;;;;;;;7.97;5.60;;;;;;;11.80;100.00;94816.03;5010954;28;20420;-61
2021/08/30 06:05:37;;;;;;;9.52;6.15;;;;;;;11.82;100.00;94827.28;5011166;28;20080;-61
2021/08/30 06:08:05;;;;;;;7.38;5.18;;;;;;;11.87;100.00;94832.66;5010194;28;20065;-60
2021/08/30 06:10:33;;;;;;;8.18;5.72;;;;;;;11.92;100.00;94834.47;5011345;28;20032;-61
2021/08/30 06:13:01;;;;;;;8.75;5.82;;;;;;;11.97;100.00;94831.78;5011129;28;20036;-60
2021/08/30 06:15:29;;;;;;;8.60;5.90;;;;;;;12.00;100.00;94833.91;5011489;28;20071;-60
2021/08/30 06:17:58;;;;;;;8.13;5.78;;;;;;;12.04;100.00;94831.44;5011345;28;20056;-61
2021/08/30 06:20:23;;;;;;;8.88;6.55;;;;;;;12.08;100.00;94832.50;5006869;28;20064;-60
2021/08/30 06:22:52;;;;;;;7.43;5.80;;;;;;;12.16;100.00;94832.72;5009440;28;20029;-61
2021/08/30 06:25:20;;;;;;;8.07;5.70;;;;;;;12.18;100.00;94829.75;5009280;28;20014;-60
2021/08/30 06:27:48;;;;;;;8.23;6.15;;;;;;;12.25;100.00;94832.09;5013757;28;20049;-60
2021/08/30 06:30:18;;;;;;;7.80;5.97;;;;;;;12.31;100.00;94845.22;5016215;28;20109;-61
2021/08/30 06:32:47;;;;;;;10.05;5.82;;;;;;;12.35;100.00;94846.25;5016255;28;20318;-61
2021/08/30 06:35:18;;;;;;;6.40;4.70;;;;;;;12.42;100.00;94843.25;5015911;28;20117;-60
2021/08/30 06:37:53;;;;;;;6.22;4.97;;;;;;;12.43;100.00;94848.31;5016143;28;20115;-60
2021/08/30 06:40:23;;;;;;;9.45;5.03;;;;;;;12.51;100.00;94846.13;5016007;28;20029;-61
2021/08/30 06:42:52;;;;;;;6.95;5.00;;;;;;;12.59;100.00;94849.00;5016187;28;20101;-61
2021/08/30 06:45:23;;;;;;;6.15;4.53;;;;;;;12.66;100.00;94854.84;5016048;28;20028;-61
2021/08/30 06:47:51;;;;;;;6.43;4.70;;;;;;;12.68;100.00;94849.97;5015888;28;20040;-61
2021/08/30 06:50:16;;;;;;;7.22;4.78;;;;;;;12.73;100.00;94852.63;5015940;28;20036;-61
2021/08/30 06:52:45;;;;;;;5.97;4.40;;;;;;;12.74;100.00;94845.38;5015840;28;20469;-61
2021/08/30 06:55:16;;;;;;;4.97;3.92;;;;;;;12.81;100.00;94845.84;5015834;28;20029;-60
2021/08/30 06:57:45;;;;;;;7.47;4.88;;;;;;;12.84;100.00;94852.53;5014587;28;20104;-61
2021/08/30 07:00:16;;;;;;;7.70;4.72;;;;;;;12.89;100.00;94847.09;5015499;28;20025;-62
2021/08/30 07:02:42;;;;;;;6.97;4.13;;;;;;;12.94;100.00;94847.06;5015721;28;20112;-61
2021/08/30 07:05:11;;;;;;;5.80;4.22;;;;;;;12.97;100.00;94849.16;5015850;28;20052;-61
2021/08/30 07:07:36;;;;;;;5.95;4.22;;;;;;;13.02;100.00;94841.03;5014433;28;20079;-61
2021/08/30 07:10:05;;;;;;;5.22;3.90;;;;;;;13.01;100.00;94845.59;5015513;28;20030;-61
2021/08/30 07:12:33;;;;;;;5.45;3.85;;;;;;;13.10;100.00;94844.97;5015338;28;20084;-61
2021/08/30 07:14:59;;;;;;;5.68;3.83;;;;;;;13.13;100.00;94839.03;5014176;28;20021;-61
2021/08/30 07:17:24;;;;;;;5.10;3.70;;;;;;;13.12;100.00;94835.53;5015457;28;20045;-61
2021/08/30 07:19:53;;;;;;;5.70;3.42;;;;;;;13.14;100.00;94836.06;5012006;28;20025;-62
2021/08/30 07:22:18;;;;;;;4.03;3.13;;;;;;;13.22;100.00;94834.66;5014348;28;20125;-61
2021/08/30 07:24:50;;;;;;;3.92;3.00;;;;;;;13.23;100.00;94831.66;5013024;28;20117;-61
2021/08/30 07:27:25;;;;;;;4.78;3.20;;;;;;;13.27;100.00;94831.91;5012788;28;20034;-61
2021/08/30 07:29:50;;;;;;;4.93;2.92;;;;;;;13.34;100.00;94817.00;5014147;28;20022;-61
2021/08/30 07:32:16;;;;;;;4.30;2.92;;;;;;;13.41;100.00;94819.34;5014288;28;20029;-61
2021/08/30 07:34:42;;;;;;;4.72;3.25;;;;;;;13.39;100.00;94821.53;5014130;28;20076;-61
2021/08/30 07:37:07;;;;;;;4.65;3.28;;;;;;;13.46;100.00;94813.94;5014006;28;20477;-60
2021/08/30 07:39:33;;;;;;;4.85;2.90;;;;;;;13.44;100.00;94821.47;5012538;28;20153;-60
2021/08/30 07:42:01;;;;;;;5.80;3.17;;;;;;;13.50;100.00;94817.63;5014153;28;20029;-61
2021/08/30 07:44:28;;;;;;;4.32;3.47;;;;;;;13.51;100.00;94818.44;5014120;28;20022;-61
2021/08/30 07:46:54;;;;;;;3.28;2.90;;;;;;;13.49;100.00;94824.09;5014249;28;20061;-61
2021/08/30 07:49:22;;;;;;;3.55;2.90;;;;;;;13.51;100.00;94821.13;5013772;28;20061;-61
2021/08/30 07:51:47;;;;;;;4.28;3.25;;;;;;;13.53;100.00;94821.63;5013947;28;20432;-61
2021/08/30 07:54:13;;;;;;;4.90;3.33;;;;;;;13.54;100.00;94824.03;5013939;28;20029;-61
2021/08/30 07:56:41;;;;;;;3.55;2.67;;;;;;;13.60;100.00;94824.78;5012042;28;20112;-61
2021/08/30 07:59:12;;;;;;;4.60;3.30;;;;;;;13.70;100.00;94827.31;5010907;28;20048;-61
2021/08/30 08:01:40;;;;;;;4.47;3.30;;;;;;;13.75;100.00;94824.53;5011423;28;20046;-61
2021/08/30 08:04:06;;;;;;;5.00;3.20;;;;;;;13.82;100.00;94829.56;5012434;28;20024;-60
2021/08/30 08:06:31;;;;;;;4.60;3.80;;;;;;;13.85;100.00;94832.47;5011680;28;20025;-61
2021/08/30 08:08:57;;;;;;;4.70;3.25;;;;;;;13.89;100.00;94830.00;5012149;28;20095;-61
2021/08/30 08:11:23;;;;;;;5.95;3.30;;;;;;;13.86;100.00;94833.28;5012418;28;20505;-60
2021/08/30 08:13:48;;;;;;;3.58;3.17;;;;;;;13.82;100.00;94834.97;5013479;28;20480;-59
2021/08/30 08:16:15;;;;;;;5.38;3.53;;;;;;;13.71;100.00;94839.69;5013464;28;20030;-61
2021/08/30 08:18:42;;;;;;;6.65;4.00;;;;;;;13.71;100.00;94847.75;5013399;28;20504;-61
2021/08/30 08:21:08;;;;;;;6.53;4.00;;;;;;;13.67;100.00;94845.91;5012763;28;20053;-61
2021/08/30 08:23:37;;;;;;;3.55;3.17;;;;;;;13.69;100.00;94849.94;5013574;28;20026;-60
2021/08/30 08:26:02;;;;;;;5.55;3.80;;;;;;;13.71;100.00;94857.72;5012036;28;20022;-61
2021/08/30 08:28:30;;;;;;;6.50;3.70;;;;;;;13.69;100.00;94860.72;5012887;28;20086;-61
2021/08/30 08:30:56;;;;;;;3.72;3.33;;;;;;;13.63;100.00;94868.03;5013330;28;20033;-62
2021/08/30 08:33:21;;;;;;;3.83;2.88;;;;;;;13.58;100.00;94870.00;5011956;28;20053;-62
2021/08/30 08:35:49;;;;;;;4.70;3.53;;;;;;;13.53;100.00;94872.75;5011726;28;20108;-61
2021/08/30 08:38:14;;;;;;;4.32;3.70;;;;;;;13.56;100.00;94878.34;5011499;28;20046;-62
2021/08/30 08:40:40;;;;;;;5.70;3.22;;;;;;;13.50;100.00;94884.91;5011712;28;20082;-62
2021/08/30 08:43:13;;;;;;;6.05;3.22;;;;;;;13.50;100.00;94889.47;5012341;28;20030;-61
2021/08/30 08:45:44;;;;;;;3.38;2.85;;;;;;;13.52;100.00;94892.69;5011725;28;20385;-61
2021/08/30 08:48:11;;;;;;;4.82;3.00;;;;;;;13.40;100.00;94895.78;5011348;28;20091;-62
2021/08/30 08:50:39;;;;;;;3.58;2.50;;;;;;;13.39;100.00;94904.13;5013330;28;20079;-62
2021/08/30 08:53:06;;;;;;;5.22;3.17;;;;;;;13.38;100.00;94908.72;5014446;28;20025;-64
2021/08/30 08:55:34;;;;;;;3.58;3.03;;;;;;;13.33;100.00;94906.06;5012461;28;20034;-63
2021/08/30 08:58:32;;;;;;;4.20;2.83;;;;;;;13.30;100.00;94918.22;5012528;28;20018;-62
2021/08/30 09:01:00;;;;;;;3.65;3.08;;;;;;;13.29;100.00;94915.81;4968361;28;20080;-63
2021/08/30 09:03:31;;;;;;;5.28;3.13;;;;;;;13.31;100.00;94924.38;5012627;28;20030;-63
2021/08/30 09:06:04;;;;;;;4.05;3.13;;;;;;;13.28;100.00;94938.41;5003861;28;20032;-63
2021/08/30 09:08:47;;;;;;;3.05;2.70;;;;;;;13.30;100.00;94941.63;5006367;28;20034;-63
2021/08/30 09:11:14;;;;;;;3.58;2.65;;;;;;;13.24;100.00;94945.44;5001641;28;20546;-63
2021/08/30 09:13:58;;;;;;;5.15;3.00;;;;;;;13.29;100.00;94958.84;5009503;28;20036;-63
2021/08/30 09:16:25;;;;;;;3.05;2.60;;;;;;;13.30;100.00;94953.19;5009559;28;20026;-63
2021/08/30 09:19:03;;;;;;;4.65;2.80;;;;;;;13.36;100.00;94963.91;5008258;28;20507;-60
2021/08/30 09:21:47;;;;;;;3.70;2.97;;;;;;;13.47;100.00;94965.41;5004160;28;20572;-62
2021/08/30 09:24:24;;;;;;;3.72;2.83;;;;;;;13.57;100.00;94966.09;5009925;28;20030;-62
2021/08/30 09:26:55;;;;;;;4.90;3.17;;;;;;;13.63;100.00;94961.44;5009248;28;20385;-63
2021/08/30 09:29:21;;;;;;;4.28;3.30;;;;;;;13.68;100.00;94969.47;5000535;28;20022;-63
2021/08/30 09:32:07;;;;;;;5.07;2.65;;;;;;;13.74;100.00;94970.19;5007766;28;20393;-61
2021/08/30 09:34:38;;;;;;;3.45;3.00;;;;;;;13.86;100.00;94973.28;5010229;28;20030;-62
2021/08/30 09:37:15;;;;;;;5.40;3.03;;;;;;;13.86;100.00;94982.16;5009977;28;20057;-62
2021/08/30 09:39:57;;;;;;;3.95;2.72;;;;;;;13.88;100.00;94973.78;5009916;28;20072;-61
2021/08/30 09:42:23;;;;;;;3.70;3.10;;;;;;;13.88;100.00;94979.97;5010230;28;20072;-61
2021/08/30 09:44:49;;;;;;;3.30;2.80;;;;;;;13.80;100.00;94977.94;5009937;28;20055;-62
2021/08/30 09:47:21;;;;;;;4.35;3.00;;;;;;;13.76;100.00;94978.78;5011840;28;20056;-58
2021/08/30 09:49:51;;;;;;;3.55;2.60;;;;;;;13.72;100.00;94983.94;5011937;28;20033;-62
2021/08/30 09:52:21;;;;;;;4.13;2.85;;;;;;;13.69;100.00;94989.09;5012024;28;20048;-61
2021/08/30 09:54:48;;;;;;;4.85;3.17;;;;;;;13.52;100.00;94987.66;5012050;28;20497;-62
2021/08/30 09:57:14;;;;;;;3.67;2.55;;;;;;;13.45;100.00;94989.88;5011457;28;20030;-60
2021/08/30 09:59:45;;;;;;;3.33;2.88;;;;;;;13.45;100.00;94991.75;5011684;28;20080;-62
2021/08/30 10:02:17;;;;;;;3.92;2.80;;;;;;;13.42;100.00;94993.13;5010781;28;20054;-62
2021/08/30 10:04:44;;;;;;;3.13;2.67;;;;;;;13.41;100.00;94990.72;5011826;28;20079;-62
2021/08/30 10:07:14;;;;;;;3.65;2.58;;;;;;;13.46;100.00;94996.06;5011566;28;20108;-62
2021/08/30 10:09:44;;;;;;;5.95;2.58;;;;;;;13.48;100.00;94997.41;5011545;28;20116;-61
2021/08/30 10:12:09;;;;;;;3.22;2.53;;;;;;;13.53;100.00;94991.94;5011368;28;20056;-62
2021/08/30 10:14:35;;;;;;;3.30;2.80;;;;;;;13.54;100.00;95000.81;5011667;28;20026;-62
2021/08/30 10:17:05;;;;;;;3.55;2.70;;;;;;;13.48;100.00;95001.97;5011397;28;20026;-62
2021/08/30 10:19:39;;;;;;;3.33;2.70;;;;;;;13.59;100.00;94987.31;5011220;28;20385;-61
2021/08/30 10:22:20;;;;;;;4.85;2.95;;;;;;;13.57;100.00;94987.63;5011526;28;20022;-62
2021/08/30 10:24:47;;;;;;;3.85;2.70;;;;;;;13.69;100.00;95003.38;5011658;28;20381;-62
2021/08/30 10:27:14;;;;;;;2.88;2.47;;;;;;;13.73;100.00;94990.94;5011240;28;20033;-62
2021/08/30 10:29:42;;;;;;;4.95;2.97;;;;;;;13.84;100.00;94997.81;5011755;28;20022;-62
2021/08/30 10:32:20;;;;;;;5.90;2.75;;;;;;;13.96;100.00;94992.00;5011482;28;20071;-62
2021/08/30 10:34:48;;;;;;;4.38;2.65;;;;;;;14.20;100.00;94989.28;5011543;28;20045;-62
2021/08/30 10:37:19;;;;;;;5.35;3.30;;;;;;;14.39;100.00;94987.41;5011202;28;20034;-63
2021/08/30 10:39:53;;;;;;;4.00;2.90;;;;;;;14.54;100.00;94982.91;5011574;28;20029;-63
2021/08/30 10:42:20;;;;;;;7.20;3.10;;;;;;;14.74;100.00;94974.53;5011671;28;20026;-63
2021/08/30 10:44:54;;;;;;;5.00;3.00;;;;;;;14.93;100.00;94967.22;5010007;28;20084;-62
2021/08/30 10:47:32;;;;;;;5.10;3.20;;;;;;;15.13;100.00;94967.97;5009909;28;20080;-63
2021/08/30 10:49:57;;;;;;;4.10;3.00;;;;;;;15.21;100.00;94954.59;5011687;28;20104;-62
2021/08/30 10:52:26;;;;;;;3.80;3.30;;;;;;;15.38;100.00;94945.91;5010523;28;20121;-62
2021/08/30 10:54:57;;;;;;;4.55;3.40;;;;;;;15.48;100.00;94926.03;5011785;28;20454;-63
2021/08/30 10:57:37;;;;;;;6.30;3.58;;;;;;;15.73;100.00;94906.66;5009622;28;20026;-62
2021/08/30 11:00:04;;;;;;;3.67;3.00;;;;;;;15.88;100.00;94892.88;5011003;28;20511;-65
2021/08/30 11:02:41;;;;;;;3.33;2.95;;;;;;;16.03;100.00;94869.31;5010105;28;20113;-63
2021/08/30 11:05:08;;;;;;;3.50;2.42;;;;;;;16.23;100.00;94837.22;5011358;28;20022;-63
2021/08/30 11:07:37;;;;;;;3.25;2.47;;;;;;;16.28;100.00;94803.06;5010714;28;20029;-63
2021/08/30 11:10:07;;;;;;;3.58;2.40;;;;;;;16.41;100.00;94784.09;5009944;28;20112;-63
2021/08/30 11:12:36;;;;;;;3.42;2.67;;;;;;;16.73;100.00;94755.22;5012101;28;20053;-63
2021/08/30 11:15:11;;;;;;;2.83;2.53;;;;;;;17.03;100.00;94729.19;5015083;28;20029;-63
2021/08/30 11:17:37;;;;;;;2.70;2.33;;;;;;;17.20;100.00;94718.44;5014441;28;20574;-63
2021/08/30 11:20:05;;;;;;;2.30;2.10;;;;;;;17.22;100.00;94702.66;5014678;28;20026;-63
2021/08/30 11:22:30;;;;;;;2.92;2.13;;;;;;;17.42;100.00;94703.19;5014847;28;20037;-63
2021/08/30 11:25:00;;;;;;;2.75;1.90;;;;;;;17.53;100.00;94701.75;5013527;28;20393;-63
2021/08/30 11:27:30;;;;;;;2.17;1.80;;;;;;;17.56;100.00;94711.94;5014233;28;20034;-63
2021/08/30 11:29:58;;;;;;;2.00;1.60;;;;;;;17.71;100.00;94735.91;5014647;28;20030;-63
2021/08/30 11:32:27;;;;;;;2.17;1.70;;;;;;;17.96;100.00;94729.69;5014675;28;20021;-63
2021/08/30 11:34:54;;;;;;;2.80;1.90;;;;;;;18.09;100.00;94752.31;5014636;28;20030;-62
2021/08/30 11:37:25;;;;;;;1.73;1.63;;;;;;;18.18;100.00;94787.53;5014054;28;20169;-63